sensor_id;sensor_type;location;lat;lon;timestamp;P1;durP1;ratioP1;P2;durP2;ratioP2
44925;SDS011;30662;51.210;7.656;2022-10-18T00:02:12;7.07;;;4.43;;
44925;SDS011;30662;51.210;7.656;2022-10-18T00:04:37;5.95;;;4.78;;
44925;SDS011;30662;51.210;7.656;2022-10-18T00:07:03;5.82;;;4.43;;
44925;SDS011;30662;51.210;7.656;2022-10-18T00:09:29;5.50;;;4.32;;
44925;SDS011;30662;51.210;7.656;2022-10-18T00:11:55;9.18;;;4.43;;
44925;SDS011;30662;51.210;7.656;2022-10-18T00:14:21;5.35;;;4.80;;
44925;SDS011;30662;51.210;7.656;2022-10-18T00:16:47;9.07;;;6.72;;
44925;SDS011;30662;51.210;7.656;2022-10-18T00:19:14;13.07;;;7.45;;
44925;SDS011;30662;51.210;7.656;2022-10-18T00:21:40;11.10;;;7.35;;
44925;SDS011;30662;51.210;7.656;2022-10-18T00:24:06;9.13;;;6.97;;
44925;SDS011;30662;51.210;7.656;2022-10-18T00:26:31;7.20;;;6.28;;
44925;SDS011;30662;51.210;7.656;2022-10-18T00:28:58;5.80;;;5.13;;
44925;SDS011;30662;51.210;7.656;2022-10-18T00:31:28;7.05;;;5.47;;
44925;SDS011;30662;51.210;7.656;2022-10-18T00:33:57;8.25;;;6.43;;
44925;SDS011;30662;51.210;7.656;2022-10-18T00:36:25;7.00;;;5.60;;
44925;SDS011;30662;51.210;7.656;2022-10-18T00:38:52;6.38;;;5.68;;
44925;SDS011;30662;51.210;7.656;2022-10-18T00:41:20;8.20;;;6.93;;
44925;SDS011;30662;51.210;7.656;2022-10-18T00:43:53;7.47;;;6.30;;
44925;SDS011;30662;51.210;7.656;2022-10-18T00:46:31;8.20;;;6.25;;
44925;SDS011;30662;51.210;7.656;2022-10-18T00:48:59;9.80;;;7.18;;
44925;SDS011;30662;51.210;7.656;2022-10-18T00:51:30;9.18;;;6.43;;
44925;SDS011;30662;51.210;7.656;2022-10-18T00:53:58;8.68;;;7.10;;
44925;SDS011;30662;51.210;7.656;2022-10-18T00:56:24;9.95;;;9.05;;
44925;SDS011;30662;51.210;7.656;2022-10-18T00:58:50;11.43;;;9.48;;
44925;SDS011;30662;51.210;7.656;2022-10-18T01:01:17;9.00;;;8.07;;
44925;SDS011;30662;51.210;7.656;2022-10-18T01:03:42;9.23;;;7.60;;
44925;SDS011;30662;51.210;7.656;2022-10-18T01:06:08;13.82;;;7.93;;
44925;SDS011;30662;51.210;7.656;2022-10-18T01:14:02;9.80;;;8.27;;
44925;SDS011;30662;51.210;7.656;2022-10-18T01:32:59;5.70;;;3.13;;
44925;SDS011;30662;51.210;7.656;2022-10-18T01:35:42;3.08;;;2.70;;
44925;SDS011;30662;51.210;7.656;2022-10-18T01:38:14;4.60;;;3.03;;
44925;SDS011;30662;51.210;7.656;2022-10-18T01:40:44;5.40;;;3.85;;
44925;SDS011;30662;51.210;7.656;2022-10-18T01:43:13;7.40;;;4.70;;
44925;SDS011;30662;51.210;7.656;2022-10-18T01:45:42;7.53;;;4.00;;
44925;SDS011;30662;51.210;7.656;2022-10-18T01:48:08;7.82;;;4.50;;
44925;SDS011;30662;51.210;7.656;2022-10-18T01:50:36;4.45;;;3.45;;
44925;SDS011;30662;51.210;7.656;2022-10-18T01:53:02;4.65;;;4.13;;
44925;SDS011;30662;51.210;7.656;2022-10-18T01:55:30;5.03;;;3.90;;
44925;SDS011;30662;51.210;7.656;2022-10-18T01:58:02;8.18;;;5.22;;
44925;SDS011;30662;51.210;7.656;2022-10-18T02:00:38;5.40;;;4.90;;
44925;SDS011;30662;51.210;7.656;2022-10-18T02:03:22;6.35;;;4.85;;
44925;SDS011;30662;51.210;7.656;2022-10-18T02:08:43;8.80;;;5.20;;
44925;SDS011;30662;51.210;7.656;2022-10-18T02:11:15;7.20;;;5.95;;
44925;SDS011;30662;51.210;7.656;2022-10-18T02:16:13;9.70;;;5.60;;
44925;SDS011;30662;51.210;7.656;2022-10-18T02:19:01;6.45;;;5.72;;
44925;SDS011;30662;51.210;7.656;2022-10-18T02:21:34;7.10;;;5.60;;
44925;SDS011;30662;51.210;7.656;2022-10-18T02:24:05;6.90;;;5.60;;
44925;SDS011;30662;51.210;7.656;2022-10-18T02:26:32;6.88;;;6.13;;
44925;SDS011;30662;51.210;7.656;2022-10-18T02:28:58;7.45;;;6.18;;
44925;SDS011;30662;51.210;7.656;2022-10-18T02:31:26;7.85;;;6.10;;
44925;SDS011;30662;51.210;7.656;2022-10-18T02:33:57;7.82;;;5.78;;
44925;SDS011;30662;51.210;7.656;2022-10-18T02:36:33;7.15;;;5.85;;
44925;SDS011;30662;51.210;7.656;2022-10-18T02:39:07;6.47;;;5.35;;
44925;SDS011;30662;51.210;7.656;2022-10-18T02:41:38;6.78;;;6.18;;
44925;SDS011;30662;51.210;7.656;2022-10-18T02:44:04;8.38;;;5.68;;
44925;SDS011;30662;51.210;7.656;2022-10-18T02:46:30;6.95;;;4.75;;
44925;SDS011;30662;51.210;7.656;2022-10-18T02:48:56;6.55;;;5.10;;
44925;SDS011;30662;51.210;7.656;2022-10-18T02:51:22;4.88;;;3.97;;
44925;SDS011;30662;51.210;7.656;2022-10-18T02:53:48;4.63;;;3.65;;
44925;SDS011;30662;51.210;7.656;2022-10-18T02:56:13;5.22;;;3.70;;
44925;SDS011;30662;51.210;7.656;2022-10-18T02:58:39;4.53;;;3.30;;
44925;SDS011;30662;51.210;7.656;2022-10-18T03:01:05;4.43;;;3.40;;
44925;SDS011;30662;51.210;7.656;2022-10-18T03:03:31;4.35;;;3.47;;
44925;SDS011;30662;51.210;7.656;2022-10-18T03:05:57;3.97;;;3.35;;
44925;SDS011;30662;51.210;7.656;2022-10-18T03:08:22;5.22;;;2.67;;
44925;SDS011;30662;51.210;7.656;2022-10-18T03:10:48;5.07;;;2.55;;
44925;SDS011;30662;51.210;7.656;2022-10-18T03:13:14;3.88;;;2.38;;
44925;SDS011;30662;51.210;7.656;2022-10-18T03:15:40;6.40;;;2.70;;
44925;SDS011;30662;51.210;7.656;2022-10-18T03:18:06;5.32;;;3.28;;
44925;SDS011;30662;51.210;7.656;2022-10-18T03:20:33;5.43;;;3.40;;
44925;SDS011;30662;51.210;7.656;2022-10-18T03:22:59;6.53;;;4.53;;
44925;SDS011;30662;51.210;7.656;2022-10-18T03:25:25;4.32;;;3.53;;
44925;SDS011;30662;51.210;7.656;2022-10-18T03:27:51;8.32;;;4.30;;
44925;SDS011;30662;51.210;7.656;2022-10-18T03:30:16;4.78;;;3.90;;
44925;SDS011;30662;51.210;7.656;2022-10-18T03:32:42;6.43;;;4.40;;
44925;SDS011;30662;51.210;7.656;2022-10-18T03:35:08;5.03;;;3.80;;
44925;SDS011;30662;51.210;7.656;2022-10-18T03:37:34;19.35;;;5.47;;
44925;SDS011;30662;51.210;7.656;2022-10-18T03:40:00;6.80;;;6.18;;
44925;SDS011;30662;51.210;7.656;2022-10-18T03:42:26;9.65;;;7.22;;
44925;SDS011;30662;51.210;7.656;2022-10-18T03:44:52;9.10;;;8.30;;
44925;SDS011;30662;51.210;7.656;2022-10-18T03:47:18;8.35;;;7.15;;
44925;SDS011;30662;51.210;7.656;2022-10-18T03:49:44;13.10;;;7.57;;
44925;SDS011;30662;51.210;7.656;2022-10-18T03:52:09;9.13;;;7.35;;
44925;SDS011;30662;51.210;7.656;2022-10-18T03:54:35;9.68;;;8.02;;
44925;SDS011;30662;51.210;7.656;2022-10-18T03:57:01;10.10;;;8.82;;
44925;SDS011;30662;51.210;7.656;2022-10-18T03:59:27;10.25;;;7.78;;
44925;SDS011;30662;51.210;7.656;2022-10-18T04:01:53;12.35;;;8.82;;
44925;SDS011;30662;51.210;7.656;2022-10-18T04:04:19;14.57;;;10.60;;
44925;SDS011;30662;51.210;7.656;2022-10-18T04:06:44;12.30;;;8.98;;
44925;SDS011;30662;51.210;7.656;2022-10-18T04:09:10;10.77;;;9.45;;
44925;SDS011;30662;51.210;7.656;2022-10-18T04:11:36;13.63;;;10.63;;
44925;SDS011;30662;51.210;7.656;2022-10-18T04:14:02;15.60;;;10.93;;
44925;SDS011;30662;51.210;7.656;2022-10-18T04:16:28;16.90;;;12.23;;
44925;SDS011;30662;51.210;7.656;2022-10-18T04:18:54;14.98;;;11.30;;
44925;SDS011;30662;51.210;7.656;2022-10-18T04:21:20;15.93;;;11.35;;
44925;SDS011;30662;51.210;7.656;2022-10-18T04:23:46;14.27;;;11.30;;
44925;SDS011;30662;51.210;7.656;2022-10-18T04:26:13;13.20;;;11.20;;
44925;SDS011;30662;51.210;7.656;2022-10-18T04:28:41;16.85;;;12.43;;
44925;SDS011;30662;51.210;7.656;2022-10-18T04:31:08;15.10;;;11.00;;
44925;SDS011;30662;51.210;7.656;2022-10-18T04:33:34;16.48;;;11.00;;
44925;SDS011;30662;51.210;7.656;2022-10-18T04:36:00;17.67;;;11.95;;
44925;SDS011;30662;51.210;7.656;2022-10-18T04:38:26;16.20;;;11.63;;
44925;SDS011;30662;51.210;7.656;2022-10-18T04:40:52;14.55;;;11.77;;
44925;SDS011;30662;51.210;7.656;2022-10-18T04:43:18;14.45;;;11.43;;
44925;SDS011;30662;51.210;7.656;2022-10-18T04:45:44;12.48;;;10.70;;
44925;SDS011;30662;51.210;7.656;2022-10-18T04:48:10;12.93;;;11.43;;
44925;SDS011;30662;51.210;7.656;2022-10-18T04:50:36;14.32;;;11.07;;
44925;SDS011;30662;51.210;7.656;2022-10-18T04:53:02;12.25;;;9.05;;
44925;SDS011;30662;51.210;7.656;2022-10-18T04:55:28;13.52;;;10.20;;
44925;SDS011;30662;51.210;7.656;2022-10-18T04:57:54;11.75;;;9.63;;
44925;SDS011;30662;51.210;7.656;2022-10-18T05:00:20;14.73;;;9.82;;
44925;SDS011;30662;51.210;7.656;2022-10-18T05:02:46;12.52;;;9.95;;
44925;SDS011;30662;51.210;7.656;2022-10-18T05:05:11;14.75;;;11.10;;
44925;SDS011;30662;51.210;7.656;2022-10-18T05:07:39;16.13;;;10.77;;
44925;SDS011;30662;51.210;7.656;2022-10-18T05:10:05;16.02;;;11.52;;
44925;SDS011;30662;51.210;7.656;2022-10-18T05:12:31;15.55;;;11.07;;
44925;SDS011;30662;51.210;7.656;2022-10-18T05:14:58;17.10;;;10.85;;
44925;SDS011;30662;51.210;7.656;2022-10-18T05:17:23;15.68;;;11.73;;
44925;SDS011;30662;51.210;7.656;2022-10-18T05:19:49;19.98;;;12.50;;
44925;SDS011;30662;51.210;7.656;2022-10-18T05:22:15;17.65;;;11.95;;
44925;SDS011;30662;51.210;7.656;2022-10-18T05:24:41;18.90;;;14.35;;
44925;SDS011;30662;51.210;7.656;2022-10-18T05:27:07;18.13;;;12.30;;
44925;SDS011;30662;51.210;7.656;2022-10-18T05:29:34;14.35;;;11.40;;
44925;SDS011;30662;51.210;7.656;2022-10-18T05:32:00;18.35;;;11.45;;
44925;SDS011;30662;51.210;7.656;2022-10-18T05:34:26;17.23;;;11.18;;
44925;SDS011;30662;51.210;7.656;2022-10-18T05:36:56;15.32;;;11.25;;
44925;SDS011;30662;51.210;7.656;2022-10-18T05:39:22;16.10;;;11.73;;
44925;SDS011;30662;51.210;7.656;2022-10-18T05:41:48;16.90;;;12.15;;
44925;SDS011;30662;51.210;7.656;2022-10-18T05:44:14;15.60;;;11.05;;
44925;SDS011;30662;51.210;7.656;2022-10-18T05:46:40;13.57;;;10.35;;
44925;SDS011;30662;51.210;7.656;2022-10-18T05:49:06;12.57;;;9.77;;
44925;SDS011;30662;51.210;7.656;2022-10-18T05:51:32;14.02;;;9.23;;
44925;SDS011;30662;51.210;7.656;2022-10-18T05:53:58;15.07;;;9.52;;
44925;SDS011;30662;51.210;7.656;2022-10-18T05:56:24;12.75;;;8.48;;
44925;SDS011;30662;51.210;7.656;2022-10-18T05:58:50;17.02;;;8.90;;
44925;SDS011;30662;51.210;7.656;2022-10-18T06:01:17;12.32;;;7.95;;
44925;SDS011;30662;51.210;7.656;2022-10-18T06:03:42;10.70;;;8.10;;
44925;SDS011;30662;51.210;7.656;2022-10-18T06:06:09;12.77;;;7.95;;
44925;SDS011;30662;51.210;7.656;2022-10-18T06:08:36;10.65;;;8.48;;
44925;SDS011;30662;51.210;7.656;2022-10-18T06:11:14;11.73;;;8.85;;
44925;SDS011;30662;51.210;7.656;2022-10-18T06:13:41;13.13;;;9.02;;
44925;SDS011;30662;51.210;7.656;2022-10-18T06:16:09;10.95;;;8.40;;
44925;SDS011;30662;51.210;7.656;2022-10-18T06:18:36;11.48;;;7.97;;
44925;SDS011;30662;51.210;7.656;2022-10-18T06:21:02;11.55;;;8.43;;
44925;SDS011;30662;51.210;7.656;2022-10-18T06:23:28;10.70;;;8.25;;
44925;SDS011;30662;51.210;7.656;2022-10-18T06:26:00;10.55;;;8.40;;
44925;SDS011;30662;51.210;7.656;2022-10-18T06:28:28;10.60;;;8.77;;
44925;SDS011;30662;51.210;7.656;2022-10-18T06:30:58;14.30;;;9.32;;
44925;SDS011;30662;51.210;7.656;2022-10-18T06:33:23;13.10;;;9.00;;
44925;SDS011;30662;51.210;7.656;2022-10-18T06:36:00;11.43;;;8.55;;
44925;SDS011;30662;51.210;7.656;2022-10-18T06:38:27;12.57;;;9.10;;
44925;SDS011;30662;51.210;7.656;2022-10-18T06:40:54;14.10;;;9.85;;
44925;SDS011;30662;51.210;7.656;2022-10-18T06:43:21;15.32;;;8.93;;
44925;SDS011;30662;51.210;7.656;2022-10-18T06:45:47;13.68;;;9.20;;
44925;SDS011;30662;51.210;7.656;2022-10-18T06:48:14;15.20;;;9.88;;
44925;SDS011;30662;51.210;7.656;2022-10-18T06:50:40;10.95;;;8.88;;
44925;SDS011;30662;51.210;7.656;2022-10-18T06:53:06;13.70;;;9.77;;
44925;SDS011;30662;51.210;7.656;2022-10-18T06:55:33;13.40;;;9.77;;
44925;SDS011;30662;51.210;7.656;2022-10-18T06:58:00;12.15;;;8.05;;
44925;SDS011;30662;51.210;7.656;2022-10-18T07:00:26;12.77;;;9.50;;
44925;SDS011;30662;51.210;7.656;2022-10-18T07:02:52;10.60;;;8.02;;
44925;SDS011;30662;51.210;7.656;2022-10-18T07:05:18;10.95;;;8.38;;
44925;SDS011;30662;51.210;7.656;2022-10-18T07:07:43;9.77;;;8.55;;
44925;SDS011;30662;51.210;7.656;2022-10-18T07:10:09;11.13;;;8.73;;
44925;SDS011;30662;51.210;7.656;2022-10-18T07:12:38;16.20;;;9.75;;
44925;SDS011;30662;51.210;7.656;2022-10-18T07:15:04;10.88;;;8.48;;
44925;SDS011;30662;51.210;7.656;2022-10-18T07:17:34;12.90;;;10.77;;
44925;SDS011;30662;51.210;7.656;2022-10-18T07:20:00;19.00;;;11.25;;
44925;SDS011;30662;51.210;7.656;2022-10-18T07:22:29;14.70;;;11.27;;
44925;SDS011;30662;51.210;7.656;2022-10-18T07:24:55;14.10;;;10.48;;
44925;SDS011;30662;51.210;7.656;2022-10-18T07:27:21;13.55;;;10.10;;
44925;SDS011;30662;51.210;7.656;2022-10-18T07:29:47;14.57;;;10.43;;
44925;SDS011;30662;51.210;7.656;2022-10-18T07:32:14;19.23;;;11.82;;
44925;SDS011;30662;51.210;7.656;2022-10-18T07:34:40;20.13;;;12.10;;
44925;SDS011;30662;51.210;7.656;2022-10-18T07:37:06;19.42;;;12.75;;
44925;SDS011;30662;51.210;7.656;2022-10-18T07:39:32;20.50;;;12.65;;
44925;SDS011;30662;51.210;7.656;2022-10-18T07:41:58;23.00;;;14.30;;
44925;SDS011;30662;51.210;7.656;2022-10-18T07:44:23;28.40;;;15.93;;
44925;SDS011;30662;51.210;7.656;2022-10-18T07:46:49;26.27;;;16.65;;
44925;SDS011;30662;51.210;7.656;2022-10-18T07:49:15;27.83;;;17.75;;
44925;SDS011;30662;51.210;7.656;2022-10-18T07:51:41;25.70;;;15.88;;
44925;SDS011;30662;51.210;7.656;2022-10-18T07:54:07;28.58;;;16.33;;
44925;SDS011;30662;51.210;7.656;2022-10-18T07:56:34;29.05;;;16.25;;
44925;SDS011;30662;51.210;7.656;2022-10-18T07:58:59;28.55;;;15.73;;
44925;SDS011;30662;51.210;7.656;2022-10-18T08:01:25;24.88;;;15.13;;
44925;SDS011;30662;51.210;7.656;2022-10-18T08:03:51;23.55;;;15.50;;
44925;SDS011;30662;51.210;7.656;2022-10-18T08:06:18;21.83;;;14.27;;
44925;SDS011;30662;51.210;7.656;2022-10-18T08:08:45;26.10;;;15.38;;
44925;SDS011;30662;51.210;7.656;2022-10-18T08:11:16;29.10;;;17.27;;
44925;SDS011;30662;51.210;7.656;2022-10-18T08:13:44;31.38;;;17.88;;
44925;SDS011;30662;51.210;7.656;2022-10-18T08:16:12;32.83;;;19.00;;
44925;SDS011;30662;51.210;7.656;2022-10-18T08:18:39;32.58;;;20.25;;
44925;SDS011;30662;51.210;7.656;2022-10-18T08:21:06;31.48;;;19.27;;
44925;SDS011;30662;51.210;7.656;2022-10-18T08:23:33;30.30;;;19.05;;
44925;SDS011;30662;51.210;7.656;2022-10-18T08:26:04;30.42;;;19.02;;
44925;SDS011;30662;51.210;7.656;2022-10-18T08:28:31;34.63;;;20.20;;
44925;SDS011;30662;51.210;7.656;2022-10-18T08:31:09;31.75;;;19.73;;
44925;SDS011;30662;51.210;7.656;2022-10-18T08:33:37;34.35;;;19.83;;
44925;SDS011;30662;51.210;7.656;2022-10-18T08:36:05;31.25;;;19.20;;
44925;SDS011;30662;51.210;7.656;2022-10-18T08:38:33;27.75;;;19.33;;
44925;SDS011;30662;51.210;7.656;2022-10-18T08:46:33;26.00;;;18.33;;
44925;SDS011;30662;51.210;7.656;2022-10-18T08:49:01;27.13;;;17.45;;
44925;SDS011;30662;51.210;7.656;2022-10-18T08:51:30;27.17;;;18.20;;
44925;SDS011;30662;51.210;7.656;2022-10-18T08:56:38;27.95;;;17.58;;
44925;SDS011;30662;51.210;7.656;2022-10-18T08:59:10;30.42;;;19.13;;
44925;SDS011;30662;51.210;7.656;2022-10-18T09:09:52;34.15;;;19.95;;
44925;SDS011;30662;51.210;7.656;2022-10-18T09:15:46;28.65;;;17.83;;
44925;SDS011;30662;51.210;7.656;2022-10-18T09:21:00;25.73;;;16.85;;
44925;SDS011;30662;51.210;7.656;2022-10-18T09:23:41;22.73;;;16.00;;
44925;SDS011;30662;51.210;7.656;2022-10-18T09:26:21;23.40;;;14.82;;
44925;SDS011;30662;51.210;7.656;2022-10-18T09:28:58;22.85;;;16.08;;
44925;SDS011;30662;51.210;7.656;2022-10-18T09:31:54;21.48;;;14.60;;
44925;SDS011;30662;51.210;7.656;2022-10-18T09:37:03;25.35;;;15.70;;
44925;SDS011;30662;51.210;7.656;2022-10-18T09:39:33;28.65;;;14.57;;
44925;SDS011;30662;51.210;7.656;2022-10-18T09:42:50;31.15;;;16.00;;
44925;SDS011;30662;51.210;7.656;2022-10-18T09:45:01;24.92;;;14.23;;
44925;SDS011;30662;51.210;7.656;2022-10-18T09:47:43;23.17;;;15.10;;
44925;SDS011;30662;51.210;7.656;2022-10-18T09:53:03;22.52;;;13.82;;
44925;SDS011;30662;51.210;7.656;2022-10-18T09:55:39;23.73;;;14.63;;
44925;SDS011;30662;51.210;7.656;2022-10-18T09:58:18;24.40;;;15.02;;
44925;SDS011;30662;51.210;7.656;2022-10-18T10:00:47;22.02;;;13.82;;
44925;SDS011;30662;51.210;7.656;2022-10-18T10:03:15;21.75;;;13.63;;
44925;SDS011;30662;51.210;7.656;2022-10-18T10:05:41;22.92;;;12.75;;
44925;SDS011;30662;51.210;7.656;2022-10-18T10:08:08;16.05;;;11.55;;
44925;SDS011;30662;51.210;7.656;2022-10-18T10:10:37;18.80;;;11.65;;
44925;SDS011;30662;51.210;7.656;2022-10-18T10:13:14;22.40;;;12.18;;
44925;SDS011;30662;51.210;7.656;2022-10-18T10:15:56;20.95;;;11.40;;
44925;SDS011;30662;51.210;7.656;2022-10-18T10:18:27;15.27;;;10.60;;
44925;SDS011;30662;51.210;7.656;2022-10-18T10:20:56;20.45;;;12.05;;
44925;SDS011;30662;51.210;7.656;2022-10-18T10:28:56;16.15;;;10.05;;
44925;SDS011;30662;51.210;7.656;2022-10-18T10:33:56;17.67;;;9.43;;
44925;SDS011;30662;51.210;7.656;2022-10-18T10:36:25;20.27;;;10.02;;
44925;SDS011;30662;51.210;7.656;2022-10-18T10:39:13;14.93;;;9.35;;
44925;SDS011;30662;51.210;7.656;2022-10-18T10:41:50;12.30;;;7.93;;
44925;SDS011;30662;51.210;7.656;2022-10-18T10:44:19;14.00;;;8.55;;
44925;SDS011;30662;51.210;7.656;2022-10-18T10:46:48;13.93;;;8.10;;
44925;SDS011;30662;51.210;7.656;2022-10-18T10:49:19;11.57;;;7.80;;
44925;SDS011;30662;51.210;7.656;2022-10-18T10:52:05;16.55;;;8.55;;
44925;SDS011;30662;51.210;7.656;2022-10-18T10:54:47;13.02;;;8.52;;
44925;SDS011;30662;51.210;7.656;2022-10-18T10:57:26;10.73;;;8.05;;
44925;SDS011;30662;51.210;7.656;2022-10-18T10:59:54;15.52;;;9.77;;
44925;SDS011;30662;51.210;7.656;2022-10-18T11:02:34;13.88;;;8.65;;
44925;SDS011;30662;51.210;7.656;2022-10-18T11:07:51;10.88;;;7.35;;
44925;SDS011;30662;51.210;7.656;2022-10-18T11:10:25;9.13;;;7.43;;
44925;SDS011;30662;51.210;7.656;2022-10-18T11:15:46;10.63;;;7.03;;
44925;SDS011;30662;51.210;7.656;2022-10-18T11:18:20;11.93;;;7.13;;
44925;SDS011;30662;51.210;7.656;2022-10-18T11:20:50;10.45;;;6.18;;
44925;SDS011;30662;51.210;7.656;2022-10-18T11:23:24;8.52;;;6.43;;
44925;SDS011;30662;51.210;7.656;2022-10-18T11:30:49;16.35;;;12.77;;
44925;SDS011;30662;51.210;7.656;2022-10-18T12:00:34;8.38;;;7.57;;
44925;SDS011;30662;51.210;7.656;2022-10-18T12:06:04;9.48;;;8.32;;
44925;SDS011;30662;51.210;7.656;2022-10-18T12:08:38;11.60;;;9.95;;
44925;SDS011;30662;51.210;7.656;2022-10-18T12:11:09;11.18;;;10.13;;
44925;SDS011;30662;51.210;7.656;2022-10-18T12:13:50;12.57;;;10.90;;
44925;SDS011;30662;51.210;7.656;2022-10-18T12:16:21;14.85;;;13.40;;
44925;SDS011;30662;51.210;7.656;2022-10-18T12:19:19;16.95;;;15.25;;
44925;SDS011;30662;51.210;7.656;2022-10-18T12:21:52;19.50;;;16.73;;
44925;SDS011;30662;51.210;7.656;2022-10-18T12:24:21;26.70;;;18.42;;
44925;SDS011;30662;51.210;7.656;2022-10-18T12:26:52;18.85;;;16.88;;
44925;SDS011;30662;51.210;7.656;2022-10-18T12:29:25;18.98;;;17.08;;
44925;SDS011;30662;51.210;7.656;2022-10-18T12:32:17;16.70;;;14.93;;
44925;SDS011;30662;51.210;7.656;2022-10-18T12:34:52;15.48;;;13.63;;
44925;SDS011;30662;51.210;7.656;2022-10-18T12:40:08;14.68;;;13.27;;
44925;SDS011;30662;51.210;7.656;2022-10-18T12:42:46;14.10;;;12.70;;
44925;SDS011;30662;51.210;7.656;2022-10-18T12:47:42;15.18;;;13.65;;
44925;SDS011;30662;51.210;7.656;2022-10-18T12:53:15;18.50;;;13.25;;
44925;SDS011;30662;51.210;7.656;2022-10-18T12:55:47;17.15;;;15.18;;
44925;SDS011;30662;51.210;7.656;2022-10-18T12:58:23;19.77;;;16.98;;
44925;SDS011;30662;51.210;7.656;2022-10-18T13:00:53;19.77;;;17.77;;
44925;SDS011;30662;51.210;7.656;2022-10-18T13:05:56;18.13;;;16.20;;
44925;SDS011;30662;51.210;7.656;2022-10-18T13:13:43;17.67;;;14.13;;
44925;SDS011;30662;51.210;7.656;2022-10-18T13:28:21;21.85;;;16.92;;
44925;SDS011;30662;51.210;7.656;2022-10-18T13:35:56;23.35;;;18.80;;
44925;SDS011;30662;51.210;7.656;2022-10-18T13:41:23;24.00;;;17.40;;
44925;SDS011;30662;51.210;7.656;2022-10-18T13:44:23;22.98;;;17.90;;
44925;SDS011;30662;51.210;7.656;2022-10-18T13:49:27;26.10;;;18.40;;
44925;SDS011;30662;51.210;7.656;2022-10-18T13:57:59;23.63;;;18.40;;
44925;SDS011;30662;51.210;7.656;2022-10-18T14:00:50;23.70;;;17.95;;
44925;SDS011;30662;51.210;7.656;2022-10-18T14:06:48;23.63;;;17.88;;
44925;SDS011;30662;51.210;7.656;2022-10-18T14:09:22;21.60;;;17.05;;
44925;SDS011;30662;51.210;7.656;2022-10-18T14:12:29;20.00;;;15.38;;
44925;SDS011;30662;51.210;7.656;2022-10-18T14:15:19;18.83;;;13.93;;
44925;SDS011;30662;51.210;7.656;2022-10-18T14:17:59;19.60;;;15.63;;
44925;SDS011;30662;51.210;7.656;2022-10-18T14:20:35;20.30;;;15.55;;
44925;SDS011;30662;51.210;7.656;2022-10-18T14:25:55;18.13;;;14.68;;
44925;SDS011;30662;51.210;7.656;2022-10-18T14:28:31;19.60;;;13.30;;
44925;SDS011;30662;51.210;7.656;2022-10-18T14:31:17;19.25;;;12.23;;
44925;SDS011;30662;51.210;7.656;2022-10-18T14:33:50;18.65;;;12.60;;
44925;SDS011;30662;51.210;7.656;2022-10-18T14:36:24;14.23;;;11.00;;
44925;SDS011;30662;51.210;7.656;2022-10-18T14:38:58;16.10;;;12.13;;
44925;SDS011;30662;51.210;7.656;2022-10-18T14:41:30;17.50;;;11.98;;
44925;SDS011;30662;51.210;7.656;2022-10-18T14:46:42;18.80;;;12.73;;
44925;SDS011;30662;51.210;7.656;2022-10-18T14:49:10;17.85;;;14.32;;
44925;SDS011;30662;51.210;7.656;2022-10-18T14:51:37;18.38;;;13.27;;
44925;SDS011;30662;51.210;7.656;2022-10-18T14:54:05;20.90;;;14.43;;
44925;SDS011;30662;51.210;7.656;2022-10-18T14:56:36;21.20;;;15.63;;
44925;SDS011;30662;51.210;7.656;2022-10-18T14:59:08;19.85;;;14.70;;
44925;SDS011;30662;51.210;7.656;2022-10-18T15:01:41;17.60;;;14.15;;
44925;SDS011;30662;51.210;7.656;2022-10-18T15:04:17;19.63;;;13.82;;
44925;SDS011;30662;51.210;7.656;2022-10-18T15:06:43;18.55;;;12.15;;
44925;SDS011;30662;51.210;7.656;2022-10-18T15:09:10;17.63;;;11.57;;
44925;SDS011;30662;51.210;7.656;2022-10-18T15:11:38;15.02;;;10.88;;
44925;SDS011;30662;51.210;7.656;2022-10-18T15:14:06;13.93;;;9.25;;
44925;SDS011;30662;51.210;7.656;2022-10-18T15:16:39;13.43;;;10.40;;
44925;SDS011;30662;51.210;7.656;2022-10-18T15:19:18;14.25;;;10.07;;
44925;SDS011;30662;51.210;7.656;2022-10-18T15:22:06;15.68;;;10.15;;
44925;SDS011;30662;51.210;7.656;2022-10-18T15:25:08;14.55;;;8.85;;
44925;SDS011;30662;51.210;7.656;2022-10-18T15:27:39;13.60;;;10.18;;
44925;SDS011;30662;51.210;7.656;2022-10-18T15:30:16;14.73;;;9.15;;
44925;SDS011;30662;51.210;7.656;2022-10-18T15:32:49;13.95;;;9.85;;
44925;SDS011;30662;51.210;7.656;2022-10-18T15:35:18;14.00;;;9.45;;
44925;SDS011;30662;51.210;7.656;2022-10-18T15:37:52;12.02;;;9.50;;
44925;SDS011;30662;51.210;7.656;2022-10-18T15:42:46;15.30;;;9.70;;
44925;SDS011;30662;51.210;7.656;2022-10-18T15:50:42;13.95;;;9.60;;
44925;SDS011;30662;51.210;7.656;2022-10-18T15:53:22;13.98;;;9.18;;
44925;SDS011;30662;51.210;7.656;2022-10-18T15:55:57;15.43;;;9.80;;
44925;SDS011;30662;51.210;7.656;2022-10-18T15:58:45;15.90;;;9.93;;
44925;SDS011;30662;51.210;7.656;2022-10-18T16:01:16;15.52;;;9.32;;
44925;SDS011;30662;51.210;7.656;2022-10-18T16:03:44;17.98;;;9.52;;
44925;SDS011;30662;51.210;7.656;2022-10-18T16:06:12;14.50;;;9.23;;
44925;SDS011;30662;51.210;7.656;2022-10-18T16:08:47;12.20;;;9.30;;
44925;SDS011;30662;51.210;7.656;2022-10-18T16:11:21;14.45;;;10.95;;
44925;SDS011;30662;51.210;7.656;2022-10-18T16:13:50;12.73;;;10.25;;
44925;SDS011;30662;51.210;7.656;2022-10-18T16:16:23;18.77;;;10.57;;
44925;SDS011;30662;51.210;7.656;2022-10-18T16:18:53;14.18;;;9.68;;
44925;SDS011;30662;51.210;7.656;2022-10-18T16:21:21;14.32;;;9.90;;
44925;SDS011;30662;51.210;7.656;2022-10-18T16:23:50;15.05;;;9.57;;
44925;SDS011;30662;51.210;7.656;2022-10-18T16:26:16;16.15;;;10.02;;
44925;SDS011;30662;51.210;7.656;2022-10-18T16:28:44;15.00;;;9.82;;
44925;SDS011;30662;51.210;7.656;2022-10-18T16:31:13;14.77;;;10.55;;
44925;SDS011;30662;51.210;7.656;2022-10-18T16:33:42;17.95;;;10.60;;
44925;SDS011;30662;51.210;7.656;2022-10-18T16:36:12;16.92;;;12.32;;
44925;SDS011;30662;51.210;7.656;2022-10-18T16:38:48;20.33;;;11.02;;
44925;SDS011;30662;51.210;7.656;2022-10-18T16:41:15;15.90;;;10.88;;
44925;SDS011;30662;51.210;7.656;2022-10-18T16:43:42;15.23;;;10.63;;
44925;SDS011;30662;51.210;7.656;2022-10-18T16:46:31;19.58;;;10.65;;
44925;SDS011;30662;51.210;7.656;2022-10-18T16:48:57;17.02;;;10.70;;
44925;SDS011;30662;51.210;7.656;2022-10-18T16:51:23;15.80;;;11.63;;
44925;SDS011;30662;51.210;7.656;2022-10-18T16:53:49;17.25;;;11.07;;
44925;SDS011;30662;51.210;7.656;2022-10-18T16:56:21;13.70;;;10.45;;
44925;SDS011;30662;51.210;7.656;2022-10-18T16:58:50;17.88;;;10.63;;
44925;SDS011;30662;51.210;7.656;2022-10-18T17:01:17;16.00;;;11.73;;
44925;SDS011;30662;51.210;7.656;2022-10-18T17:03:44;16.52;;;11.40;;
44925;SDS011;30662;51.210;7.656;2022-10-18T17:06:15;19.23;;;12.82;;
44925;SDS011;30662;51.210;7.656;2022-10-18T17:08:43;15.13;;;11.43;;
44925;SDS011;30662;51.210;7.656;2022-10-18T17:11:10;17.33;;;11.25;;
44925;SDS011;30662;51.210;7.656;2022-10-18T17:13:37;20.65;;;14.75;;
44925;SDS011;30662;51.210;7.656;2022-10-18T17:16:03;15.65;;;11.27;;
44925;SDS011;30662;51.210;7.656;2022-10-18T17:18:29;17.45;;;10.77;;
44925;SDS011;30662;51.210;7.656;2022-10-18T17:20:56;14.65;;;9.55;;
44925;SDS011;30662;51.210;7.656;2022-10-18T17:23:25;15.00;;;10.27;;
44925;SDS011;30662;51.210;7.656;2022-10-18T17:25:51;15.45;;;9.50;;
44925;SDS011;30662;51.210;7.656;2022-10-18T17:28:34;14.88;;;9.95;;
44925;SDS011;30662;51.210;7.656;2022-10-18T17:31:04;14.88;;;9.43;;
44925;SDS011;30662;51.210;7.656;2022-10-18T17:33:31;19.48;;;8.57;;